createdAt,value
2023-03-17T00:00:23.786Z,27.83
2023-03-17T01:04:30.860Z,28.10
2023-03-17T01:08:30.785Z,28.13
2023-03-17T01:12:30.748Z,28.04
2023-03-17T01:16:30.709Z,28.00
2023-03-17T01:20:30.892Z,27.98
2023-03-17T01:24:30.557Z,27.93
2023-03-17T01:28:30.653Z,27.87
2023-03-17T01:32:30.719Z,27.85
2023-03-17T01:36:30.755Z,27.81
2023-03-17T01:40:31.310Z,27.82
2023-03-17T01:44:30.911Z,27.79
2023-03-17T01:48:30.934Z,27.81
2023-03-17T01:52:30.983Z,27.74
2023-03-17T01:56:31.054Z,27.68
2023-03-17T02:00:31.479Z,27.68
2023-03-17T02:04:31.288Z,27.65
2023-03-17T02:08:31.219Z,27.69
2023-03-17T02:12:31.277Z,27.66
2023-03-17T02:16:31.401Z,27.65
2023-03-17T02:20:31.927Z,27.66
2023-03-17T02:24:31.444Z,27.62
2023-03-17T02:28:31.513Z,27.64
2023-03-17T02:32:31.600Z,27.58
2023-03-17T02:36:31.629Z,27.57
2023-03-17T02:40:32.084Z,27.57
2023-03-17T02:44:31.701Z,27.56
2023-03-17T02:48:31.766Z,27.58
2023-03-17T02:52:31.791Z,27.60
2023-03-17T02:56:31.828Z,27.59
2023-03-17T03:00:32.331Z,27.54
2023-03-17T03:04:31.928Z,27.49
2023-03-17T03:08:31.916Z,27.59
2023-03-17T03:12:31.932Z,27.48
2023-03-17T03:16:31.957Z,27.53
2023-03-17T03:20:32.197Z,27.51
2023-03-17T03:24:32.005Z,27.51
2023-03-17T03:28:32.056Z,27.53
2023-03-17T03:32:32.110Z,27.60
2023-03-17T03:36:32.158Z,27.52
2023-03-17T03:40:32.444Z,27.54
2023-03-17T03:44:32.177Z,27.51
2023-03-17T03:48:32.194Z,27.48
2023-03-17T03:52:32.249Z,27.48
2023-03-17T03:56:32.252Z,27.49
2023-03-17T04:00:32.888Z,27.48
2023-03-17T04:04:32.359Z,27.47
2023-03-17T04:08:32.353Z,27.49
2023-03-17T04:12:32.349Z,27.48
2023-03-17T04:16:32.402Z,27.47
2023-03-17T04:20:32.991Z,27.52
2023-03-17T04:24:32.471Z,27.47
2023-03-17T04:28:32.436Z,27.44
2023-03-17T04:32:32.445Z,27.47
2023-03-17T04:36:32.384Z,27.43
2023-03-17T04:40:32.681Z,27.40
2023-03-17T04:44:32.346Z,27.33
2023-03-17T04:48:32.303Z,27.28
2023-03-17T04:52:32.250Z,27.22
2023-03-17T04:56:32.229Z,27.24
2023-03-17T05:00:32.420Z,27.21
2023-03-17T05:04:32.560Z,27.17
2023-03-17T05:08:32.080Z,27.11
2023-03-17T05:12:32.013Z,27.14
2023-03-17T05:16:31.970Z,27.14
2023-03-17T05:20:32.305Z,27.11
2023-03-17T05:24:31.866Z,27.13
2023-03-17T05:28:31.822Z,27.12
2023-03-17T05:32:31.911Z,27.06
2023-03-17T05:36:31.693Z,27.08
2023-03-17T05:40:32.069Z,27.04
2023-03-17T05:44:31.628Z,27.05
2023-03-17T05:48:31.536Z,27.05
2023-03-17T05:52:31.456Z,27.05
2023-03-17T05:56:31.370Z,26.96
2023-03-17T06:00:31.813Z,26.93
2023-03-17T06:04:31.306Z,26.96
2023-03-17T06:08:31.357Z,26.81
2023-03-17T06:12:31.291Z,26.52
2023-03-17T06:16:31.325Z,26.30
2023-03-17T06:20:31.304Z,26.93
2023-03-17T06:24:31.368Z,27.17
2023-03-17T06:28:31.371Z,27.15
2023-03-17T06:32:31.447Z,27.29
2023-03-17T06:36:31.335Z,27.41
2023-03-17T06:40:31.366Z,27.57
2023-03-17T06:44:31.369Z,27.61
2023-03-17T06:48:31.398Z,27.78
2023-03-17T06:52:31.379Z,28.16
2023-03-17T06:56:31.203Z,28.18
2023-03-17T07:00:31.390Z,26.67
2023-03-17T07:04:31.451Z,27.66
2023-03-17T07:08:31.388Z,28.11
2023-03-17T07:12:31.331Z,28.37
2023-03-17T07:16:31.429Z,28.58
2023-03-17T07:20:31.476Z,28.80
2023-03-17T07:24:31.625Z,29.02
2023-03-17T07:28:30.881Z,29.11
2023-03-17T07:32:30.771Z,29.30
2023-03-17T07:36:30.925Z,29.32
2023-03-17T07:40:32.674Z,29.48
2023-03-17T07:44:30.394Z,29.80
2023-03-17T07:48:30.399Z,29.83
2023-03-17T07:52:33.949Z,30.08
2023-03-17T07:56:30.409Z,30.20
2023-03-17T08:00:30.401Z,30.32
2023-03-17T08:04:29.922Z,30.70
2023-03-17T08:08:29.932Z,30.46
2023-03-17T08:12:29.903Z,30.35
2023-03-17T08:16:29.972Z,30.29
2023-03-17T08:20:30.857Z,30.44
2023-03-17T08:24:30.920Z,30.61
2023-03-17T08:28:30.409Z,30.70
2023-03-17T08:32:30.514Z,30.65
2023-03-17T08:36:30.405Z,30.68
2023-03-17T08:40:30.377Z,30.46
2023-03-17T08:44:30.417Z,30.23
2023-03-17T08:48:29.919Z,30.29
2023-03-17T08:52:29.806Z,30.02
2023-03-17T08:56:30.445Z,26.27
2023-03-17T09:00:30.648Z,26.46
2023-03-17T09:04:30.511Z,26.75
2023-03-17T09:08:30.431Z,26.67
2023-03-17T09:12:31.474Z,26.34
2023-03-17T09:16:30.467Z,25.26
2023-03-17T09:20:30.412Z,25.57
2023-03-17T09:24:30.424Z,25.33
2023-03-17T09:28:30.447Z,25.61
2023-03-17T09:32:30.002Z,25.90
2023-03-17T09:36:29.925Z,25.67
2023-03-17T09:40:30.717Z,25.56
2023-03-17T09:44:30.683Z,25.58
2023-03-17T09:48:29.524Z,25.59
2023-03-17T09:52:29.976Z,25.70
2023-03-17T09:56:29.516Z,26.13
2023-03-17T10:00:30.084Z,26.09
2023-03-17T10:04:29.330Z,26.11
2023-03-17T10:08:31.921Z,25.97
2023-03-17T10:12:30.146Z,26.01
2023-03-17T10:16:29.554Z,26.33
2023-03-17T10:20:28.980Z,26.49
2023-03-17T10:24:28.986Z,26.56
2023-03-17T10:28:29.471Z,24.34
2023-03-17T10:32:29.543Z,25.23
2023-03-17T10:36:29.446Z,25.34
2023-03-17T10:40:29.689Z,25.32
2023-03-17T10:44:29.471Z,25.63
2023-03-17T10:48:30.034Z,25.89
2023-03-17T10:52:29.474Z,26.06
2023-03-17T10:56:29.269Z,26.29
2023-03-17T11:00:29.817Z,26.47
2023-03-17T11:04:29.548Z,26.66
2023-03-17T11:08:29.488Z,27.07
2023-03-17T11:12:29.050Z,27.38
2023-03-17T11:16:29.068Z,27.43
2023-03-17T11:20:29.270Z,27.58
2023-03-17T11:24:30.435Z,27.68
2023-03-17T11:28:28.987Z,27.75
2023-03-17T11:32:29.089Z,27.93
2023-03-17T11:36:28.502Z,27.96
2023-03-17T11:40:28.926Z,28.08
2023-03-17T11:44:28.486Z,28.25
2023-03-17T11:48:28.474Z,28.26
2023-03-17T11:52:28.595Z,28.19
2023-03-17T11:56:28.496Z,28.21
2023-03-17T12:00:28.498Z,28.13
2023-03-17T12:04:28.035Z,28.36
2023-03-17T12:08:28.068Z,28.24
2023-03-17T12:12:27.971Z,28.27
2023-03-17T12:16:27.999Z,28.36
2023-03-17T12:20:28.038Z,28.37
2023-03-17T12:24:27.760Z,28.26
2023-03-17T12:28:27.991Z,28.25
2023-03-17T12:32:28.098Z,28.30
2023-03-17T12:36:27.486Z,28.31
2023-03-17T12:40:27.638Z,28.33
2023-03-17T12:44:27.236Z,28.33
2023-03-17T12:48:27.151Z,28.24
2023-03-17T12:52:27.101Z,28.30
2023-03-17T12:56:27.527Z,28.19
2023-03-17T13:00:27.143Z,28.21
2023-03-17T13:04:27.507Z,28.28
2023-03-17T13:08:27.514Z,28.25
2023-03-17T13:12:27.540Z,28.17
2023-03-17T13:16:27.603Z,28.13
2023-03-17T13:20:28.027Z,28.56
2023-03-17T13:24:27.755Z,28.45
2023-03-17T13:28:28.022Z,29.41
2023-03-17T13:32:28.082Z,30.98
2023-03-17T13:36:27.502Z,31.76
2023-03-17T13:40:27.531Z,31.58
2023-03-17T13:44:27.275Z,31.12
2023-03-17T13:48:27.517Z,30.79
2023-03-17T13:52:27.586Z,30.51
2023-03-17T13:56:28.069Z,30.25
2023-03-17T14:00:28.141Z,30.02
2023-03-17T14:04:27.537Z,29.77
2023-03-17T14:08:27.550Z,29.62
2023-03-17T14:12:27.559Z,29.57
2023-03-17T14:16:27.689Z,29.50
2023-03-17T14:20:27.604Z,29.33
2023-03-17T14:24:27.559Z,29.28
2023-03-17T14:28:27.372Z,29.18
2023-03-17T14:32:27.288Z,29.05
2023-03-17T14:36:27.203Z,28.99
2023-03-17T14:40:26.918Z,28.94
2023-03-17T14:44:27.039Z,28.91
2023-03-17T14:48:26.722Z,28.83
2023-03-17T14:52:26.594Z,28.94
2023-03-17T14:56:26.723Z,29.01
2023-03-17T15:00:26.660Z,29.02
2023-03-17T15:04:27.620Z,29.09
2023-03-17T15:08:26.569Z,29.07
2023-03-17T15:12:26.560Z,29.15
2023-03-17T15:16:26.850Z,29.18
2023-03-17T15:20:27.068Z,29.15
2023-03-17T15:24:27.077Z,29.17
2023-03-17T15:28:27.584Z,29.36
2023-03-17T15:32:27.712Z,29.24
2023-03-17T15:36:32.846Z,29.31
2023-03-17T15:40:27.208Z,29.39
2023-03-17T15:44:27.148Z,29.46
2023-03-17T15:48:27.140Z,29.52
2023-03-17T15:52:27.023Z,29.65
2023-03-17T15:56:26.871Z,29.64
2023-03-17T16:00:26.813Z,29.64
2023-03-17T16:04:26.803Z,29.69
2023-03-17T16:08:27.088Z,29.60
2023-03-17T16:12:26.554Z,29.60
2023-03-17T16:16:26.449Z,29.50
2023-03-17T16:20:26.556Z,29.52
2023-03-17T16:24:26.325Z,29.46
2023-03-17T16:28:26.218Z,29.48
2023-03-17T16:32:26.119Z,29.45
2023-03-17T16:36:26.012Z,29.50
2023-03-17T16:40:26.076Z,29.45
2023-03-17T16:44:25.864Z,29.39
2023-03-17T16:48:25.760Z,29.37
2023-03-17T16:52:25.695Z,29.38
2023-03-17T16:56:25.775Z,29.37
2023-03-17T17:00:25.524Z,29.38
2023-03-17T17:04:25.512Z,29.35
2023-03-17T17:08:25.600Z,29.35
2023-03-17T17:12:25.476Z,29.33
2023-03-17T17:16:25.543Z,29.33
2023-03-17T17:20:25.454Z,29.27
2023-03-17T17:24:25.409Z,29.27
2023-03-17T17:28:25.365Z,29.23
2023-03-17T17:32:25.266Z,29.21
2023-03-17T17:36:25.598Z,29.26
2023-03-17T17:40:25.153Z,29.23
2023-03-17T17:44:25.093Z,29.28
2023-03-17T17:48:25.017Z,29.21
2023-03-17T17:52:24.948Z,29.21
2023-03-17T17:56:24.929Z,29.28
2023-03-17T18:00:24.908Z,29.24
2023-03-17T18:04:24.867Z,29.21
2023-03-17T18:08:24.830Z,29.24
2023-03-17T18:12:24.738Z,29.22
2023-03-17T18:16:24.732Z,29.20
2023-03-17T18:20:24.683Z,29.24
2023-03-17T18:24:24.635Z,29.21
2023-03-17T18:28:24.602Z,29.17
2023-03-17T18:32:24.602Z,29.21
2023-03-17T18:36:24.577Z,29.17
2023-03-17T18:40:24.584Z,29.19
2023-03-17T18:44:24.528Z,29.15
2023-03-17T18:48:24.508Z,29.15
2023-03-17T18:52:24.445Z,29.13
2023-03-17T18:56:24.506Z,29.11
2023-03-17T19:00:24.436Z,29.15
2023-03-17T19:04:24.466Z,29.10
2023-03-17T19:08:24.404Z,29.11
2023-03-17T19:12:24.442Z,29.09
2023-03-17T19:16:24.357Z,29.03
2023-03-17T19:20:24.335Z,29.09
2023-03-17T19:24:24.284Z,29.06
2023-03-17T19:28:24.321Z,29.00
2023-03-17T19:32:24.240Z,29.07
2023-03-17T19:36:24.248Z,29.03
2023-03-17T19:40:24.182Z,29.01
2023-03-17T19:44:24.196Z,29.00
2023-03-17T19:48:24.150Z,29.03
2023-03-17T19:52:24.155Z,29.01
2023-03-17T19:56:24.114Z,28.98
2023-03-17T20:00:24.128Z,28.99
2023-03-17T20:04:24.224Z,29.00
2023-03-17T20:08:24.067Z,28.96
2023-03-17T20:12:24.040Z,28.95
2023-03-17T20:16:24.164Z,28.99
2023-03-17T20:20:23.980Z,28.97
2023-03-17T20:24:23.993Z,28.97
2023-03-17T20:28:23.929Z,28.95
2023-03-17T20:32:23.941Z,28.89
2023-03-17T20:36:23.888Z,28.95
2023-03-17T20:40:23.884Z,28.93
2023-03-17T20:44:23.862Z,28.88
2023-03-17T20:48:23.862Z,28.91
2023-03-17T20:52:23.869Z,28.89
2023-03-17T20:56:23.824Z,28.83
2023-03-17T21:00:23.846Z,28.86
2023-03-17T21:04:23.855Z,28.78
2023-03-17T21:08:23.784Z,28.83
2023-03-17T21:12:23.828Z,28.84
2023-03-17T21:16:23.948Z,28.84
2023-03-17T21:20:23.846Z,28.84
2023-03-17T21:24:23.862Z,28.83
2023-03-17T21:28:23.882Z,28.84
2023-03-17T21:32:23.887Z,28.77
2023-03-17T21:36:23.881Z,28.74
2023-03-17T21:40:23.919Z,28.74
2023-03-17T21:44:23.962Z,28.74
2023-03-17T21:48:23.941Z,28.69
2023-03-17T21:52:30.695Z,28.70
2023-03-17T21:56:23.970Z,28.67
2023-03-17T22:00:25.671Z,28.65
2023-03-17T22:04:23.818Z,28.66
2023-03-17T22:08:30.220Z,28.70
2023-03-17T22:12:23.740Z,28.68
2023-03-17T22:16:23.793Z,28.62
2023-03-17T22:20:23.656Z,28.62
2023-03-17T22:24:23.599Z,28.57
2023-03-17T22:28:23.523Z,28.57
2023-03-17T22:32:23.493Z,28.50
2023-03-17T22:36:23.413Z,28.52
2023-03-17T22:40:23.443Z,28.54
2023-03-17T22:44:23.446Z,28.51
2023-03-17T22:48:23.556Z,28.47
2023-03-17T22:52:23.562Z,28.50
2023-03-17T22:56:23.590Z,28.40
2023-03-17T23:00:23.717Z,28.41
2023-03-17T23:04:23.744Z,28.40
2023-03-17T23:08:23.745Z,28.39
2023-03-17T23:12:23.780Z,28.36
2023-03-17T23:16:23.956Z,28.30
2023-03-17T23:20:23.902Z,28.26
2023-03-17T23:24:23.901Z,28.24
2023-03-17T23:28:23.900Z,28.20
2023-03-17T23:32:24.006Z,28.19
2023-03-17T23:36:23.993Z,28.19
2023-03-17T23:40:23.996Z,28.18
2023-03-17T23:44:24.049Z,28.25
2023-03-17T23:48:24.039Z,28.22
2023-03-17T23:52:24.118Z,28.22
2023-03-17T23:56:24.065Z,28.26
